90TS weather

Brandes Air Field 2
Sealy, Texas, United States

Public forecast

Using degrees Fahrenheit for public forecast. Weather courtesy of forecast.io.

Closest aviation weather report (METAR) to Brandes Air Field 2

Closest report is Houston Executive Airport, 12.9 nm (23.9 km) ESE. Retrieved 2020/04/08 19:35 UTC (0 seconds ago):

KTME 081935Z AUTO 23007KT 9SM BKN023 OVC027 29/24 A2990 RMK AO2

Closest aviation forecast (TAF) to Brandes Air Field 2

Closest forecast is Sugar Land Regional Airport, 28.8 nm (53.4 km) ESE. Retrieved 2020/04/08 18:42 UTC (48 minutes ago):

TAF KSGR 081740Z 0818/0918 23006KT P6SM BKN015 BKN040 FM082300 20006KT P6SM VCSH SCT045 BKN150 FM090200 21005KT P6SM SCT080 BKN250 FM090700 VRB04KT 4SM BR BKN006 BKN010 FM091500 26006KT P6SM SCT015 BKN025